Camano Island, Washington
Current Conditions -  °F | °C
As of 7:56 AM on Sunday 23 Nov 2014 (Local Time) from KNUW Reporting Station
Overcast Overcast  
Wind Chill: 50°   Ceiling: 4100
Heat Index: 50°   Visibility: 10mi
Dew Point: 45°   Wind: 12mph
Humidity: 83%   Direction: 170°S
Pressure: 30.04"   Gusts: NA
Location:  48.16°N, 122.49°W
Report Text: KNUW 231556Z 17010KT 10SM FEW007 BKN041 OVC080 10/07 A3004 RMK AO2 RAE49 SLP177 P0011 T01000072 $
Loading
Personal Weather Stations






























Interactive Weather Map New forecast layout! Learn more

10-Day Weather Forecast

Advertisements
Track Severe Weather on mobile